createdAt,value
2023-12-20T00:01:23.869Z,100127.16
2023-12-20T00:03:53.267Z,100079.25
2023-12-20T00:06:21.304Z,100005.41
2023-12-20T00:08:49.241Z,100029.84
2023-12-20T00:11:17.151Z,100123.34
2023-12-20T00:13:47.219Z,100117.00
2023-12-20T00:16:15.889Z,100110.66
2023-12-20T00:18:43.923Z,100091.84
2023-12-20T00:21:13.475Z,100113.91
2023-12-20T00:23:41.542Z,100106.97
2023-12-20T00:26:09.497Z,100083.47
2023-12-20T00:28:37.467Z,100113.03
2023-12-20T00:31:05.942Z,100078.69
2023-12-20T00:33:34.099Z,100097.22
2023-12-20T00:36:02.175Z,100086.63
2023-12-20T00:38:31.445Z,100048.72
2023-12-20T00:40:59.477Z,100088.91
2023-12-20T00:43:27.971Z,100077.00
2023-12-20T00:45:56.692Z,100074.69
2023-12-20T00:48:24.700Z,100072.16
2023-12-20T00:50:52.673Z,100073.13
2023-12-20T00:53:20.652Z,100070.56
2023-12-20T00:55:51.400Z,100074.00
2023-12-20T00:58:19.380Z,100064.41
2023-12-20T01:00:47.963Z,100061.41
2023-12-20T01:03:16.586Z,100065.00
2023-12-20T01:05:44.702Z,100037.53
2023-12-20T01:08:12.668Z,100059.09
2023-12-20T01:10:41.569Z,100060.50
2023-12-20T01:13:11.244Z,100010.97
2023-12-20T01:15:39.280Z,100043.34
2023-12-20T01:18:07.428Z,100042.44
2023-12-20T01:20:35.347Z,100035.25
2023-12-20T01:23:03.304Z,100033.91
2023-12-20T01:25:31.309Z,100026.03
2023-12-20T01:27:59.308Z,100023.28
2023-12-20T01:30:28.667Z,100016.34
2023-12-20T01:32:56.784Z,99980.69
2023-12-20T01:35:24.855Z,100000.22
2023-12-20T01:37:52.812Z,99928.97
2023-12-20T01:40:21.994Z,99989.88
2023-12-20T01:42:49.936Z,99984.06
2023-12-20T01:45:17.856Z,100009.91
2023-12-20T01:47:47.522Z,100013.78
2023-12-20T01:50:15.624Z,99992.78
2023-12-20T01:52:45.143Z,100007.59
2023-12-20T01:55:15.869Z,99996.03
2023-12-20T01:57:45.420Z,99995.16
2023-12-20T02:00:15.677Z,99948.59
2023-12-20T02:02:44.016Z,99993.94
2023-12-20T02:05:13.652Z,99947.91
2023-12-20T02:07:41.760Z,99980.47
2023-12-20T02:10:10.608Z,99946.75
2023-12-20T02:12:38.581Z,99970.44
2023-12-20T02:15:07.481Z,99944.63
2023-12-20T02:17:36.521Z,99970.91
2023-12-20T02:20:04.835Z,99966.13
2023-12-20T02:22:33.491Z,99917.31
2023-12-20T02:25:01.599Z,99966.72
2023-12-20T02:27:31.169Z,99963.88
2023-12-20T02:29:59.218Z,99919.47
2023-12-20T02:32:28.400Z,99892.03
2023-12-20T02:34:57.820Z,99954.41
2023-12-20T02:37:25.917Z,99922.38
2023-12-20T02:39:55.245Z,99911.53
2023-12-20T02:42:23.157Z,99945.16
2023-12-20T02:44:51.224Z,99946.34
2023-12-20T02:47:19.249Z,99946.44
2023-12-20T02:49:47.324Z,99938.91
2023-12-20T02:52:15.544Z,99936.66
2023-12-20T02:54:43.613Z,99938.09
2023-12-20T02:57:12.857Z,99935.53
2023-12-20T02:59:40.947Z,99920.13
2023-12-20T03:02:08.964Z,99930.38
2023-12-20T03:04:37.056Z,99933.31
2023-12-20T03:07:05.108Z,99926.66
2023-12-20T03:09:47.608Z,99849.47
2023-12-20T03:12:22.714Z,99925.19
2023-12-20T03:14:51.006Z,99922.50
2023-12-20T03:17:18.900Z,99922.78
2023-12-20T03:19:46.887Z,99924.19
2023-12-20T03:22:14.984Z,99879.53
2023-12-20T03:24:42.969Z,99916.56
2023-12-20T03:27:10.998Z,99915.00
2023-12-20T03:29:40.356Z,99913.47
2023-12-20T03:32:09.888Z,99860.16
2023-12-20T03:34:37.977Z,99911.63
2023-12-20T03:37:06.090Z,99911.63
2023-12-20T03:39:34.032Z,99845.53
2023-12-20T03:42:01.959Z,99906.81
2023-12-20T03:44:29.950Z,99818.38
2023-12-20T03:46:59.263Z,99878.97
2023-12-20T03:49:27.498Z,99894.16
2023-12-20T03:51:55.546Z,99896.50
2023-12-20T03:54:23.565Z,99898.47
2023-12-20T03:56:51.598Z,99898.19
2023-12-20T03:59:21.028Z,99906.13
2023-12-20T04:01:49.163Z,99907.91
2023-12-20T04:04:18.748Z,99904.59
2023-12-20T04:06:46.972Z,99907.53
2023-12-20T04:09:15.196Z,99908.31
2023-12-20T04:11:43.163Z,99900.38
2023-12-20T04:14:11.358Z,99890.34
2023-12-20T04:16:40.274Z,99887.78
2023-12-20T04:19:08.364Z,99889.56
2023-12-20T04:21:37.689Z,99875.47
2023-12-20T04:24:05.827Z,99866.13
2023-12-20T04:26:33.871Z,99896.81
2023-12-20T04:29:01.856Z,99876.19
2023-12-20T04:31:29.869Z,99877.06
2023-12-20T04:33:57.884Z,99868.34
2023-12-20T04:36:27.977Z,99892.53
2023-12-20T04:38:57.371Z,99886.25
2023-12-20T04:41:25.338Z,99816.44
2023-12-20T04:43:53.283Z,99882.22
2023-12-20T04:46:21.364Z,99859.53
2023-12-20T04:48:49.447Z,99827.97
2023-12-20T04:51:17.884Z,99867.38
2023-12-20T04:53:45.788Z,99867.75
2023-12-20T04:56:15.014Z,99862.09
2023-12-20T04:58:43.078Z,99874.47
2023-12-20T05:01:11.554Z,99823.81
2023-12-20T05:03:39.531Z,99869.22
2023-12-20T05:06:07.658Z,99866.00
2023-12-20T05:08:35.685Z,99859.94
2023-12-20T05:11:04.278Z,99859.28
2023-12-20T05:13:38.382Z,99855.19
2023-12-20T05:16:15.216Z,99813.91
2023-12-20T05:18:43.268Z,99831.34
2023-12-20T05:21:11.605Z,99735.03
2023-12-20T05:23:39.476Z,99845.34
2023-12-20T05:26:07.676Z,99780.31
2023-12-20T05:28:37.706Z,99819.22
2023-12-20T05:31:06.063Z,99840.28
2023-12-20T05:33:34.213Z,99835.38
2023-12-20T05:36:02.441Z,99818.84
2023-12-20T05:38:30.519Z,99839.28
2023-12-20T05:40:59.138Z,99788.91
2023-12-20T05:43:27.286Z,99824.59
2023-12-20T05:46:11.866Z,99587.06
2023-12-20T05:48:41.112Z,99757.44
2023-12-20T05:51:10.663Z,99489.47
2023-12-20T05:54:08.030Z,99458.81
2023-12-20T05:56:36.603Z,99825.28
2023-12-20T05:59:04.653Z,99751.81
2023-12-20T06:01:34.496Z,99802.22
2023-12-20T06:04:02.843Z,99553.81
2023-12-20T06:06:31.808Z,99505.34
2023-12-20T06:08:59.943Z,99326.56
2023-12-20T06:11:48.155Z,99775.28
2023-12-20T06:14:19.952Z,99514.09
2023-12-20T06:16:53.413Z,99540.56
2023-12-20T06:19:24.109Z,99253.25
2023-12-20T06:21:57.365Z,99403.06
2023-12-20T06:24:29.029Z,99811.41
2023-12-20T06:26:57.224Z,99807.44
2023-12-20T06:29:26.683Z,99566.97
2023-12-20T06:31:56.016Z,99806.78
2023-12-20T06:34:31.030Z,99801.47
2023-12-20T06:36:58.417Z,99717.28
2023-12-20T06:39:26.926Z,99685.19
2023-12-20T06:41:56.125Z,99785.25
2023-12-20T06:44:25.294Z,99804.53
2023-12-20T06:47:03.075Z,99240.06
2023-12-20T06:49:41.176Z,99280.94
2023-12-20T06:52:24.756Z,99149.84
2023-12-20T06:54:56.055Z,99487.06
2023-12-20T06:57:38.237Z,99786.31
2023-12-20T07:00:12.960Z,99523.53
2023-12-20T07:02:49.832Z,99439.50
2023-12-20T07:05:38.197Z,99794.28
2023-12-20T07:09:34.564Z,99679.56
2023-12-20T07:13:13.011Z,99742.91
2023-12-20T07:15:49.618Z,99393.19
2023-12-20T07:18:19.897Z,99665.44
2023-12-20T07:20:48.492Z,99665.34
2023-12-20T07:23:16.731Z,99601.31
2023-12-20T07:25:45.353Z,99764.34
2023-12-20T07:28:13.934Z,99766.22
2023-12-20T07:30:42.566Z,99473.91
2023-12-20T07:33:11.629Z,99506.19
2023-12-20T07:35:41.384Z,99581.88
2023-12-20T07:38:09.600Z,99759.94
2023-12-20T07:40:40.770Z,99341.34
2023-12-20T07:43:10.584Z,99760.69
2023-12-20T07:45:39.270Z,99734.03
2023-12-20T07:48:09.445Z,99437.94
2023-12-20T07:50:37.689Z,99498.97
2023-12-20T07:53:07.806Z,99698.22
2023-12-20T07:55:36.380Z,99725.28
2023-12-20T07:58:06.264Z,99747.44
2023-12-20T08:00:34.315Z,99665.94
2023-12-20T08:03:04.690Z,99736.47
2023-12-20T08:05:32.917Z,99674.25
2023-12-20T08:08:01.090Z,99678.59
2023-12-20T08:10:31.420Z,99740.13
2023-12-20T08:12:59.581Z,99734.81
2023-12-20T08:15:27.716Z,99737.66
2023-12-20T08:17:56.033Z,99737.03
2023-12-20T08:20:30.410Z,99407.97
2023-12-20T08:23:05.750Z,99730.66
2023-12-20T08:25:35.719Z,99353.72
2023-12-20T08:28:05.858Z,99724.81
2023-12-20T08:30:34.436Z,99683.03
2023-12-20T08:33:03.937Z,99709.19
2023-12-20T08:35:32.344Z,99708.94
2023-12-20T08:38:00.816Z,99709.41
2023-12-20T08:40:29.342Z,99643.88
2023-12-20T08:42:58.953Z,99694.63
2023-12-20T08:45:27.153Z,99647.69
2023-12-20T08:47:58.171Z,99687.84
2023-12-20T08:50:26.628Z,99680.75
2023-12-20T08:52:54.850Z,99630.38
2023-12-20T08:55:23.068Z,99620.56
2023-12-20T08:57:52.037Z,99621.25
2023-12-20T09:00:25.478Z,99514.88
2023-12-20T09:02:53.675Z,99586.38
2023-12-20T09:05:21.817Z,99650.16
2023-12-20T09:07:50.571Z,99560.78
2023-12-20T09:10:23.635Z,99634.56
2023-12-20T09:12:52.595Z,99639.13
2023-12-20T09:15:22.122Z,99624.50
2023-12-20T09:17:50.570Z,99620.88
2023-12-20T09:20:19.404Z,99569.69
2023-12-20T09:22:49.869Z,99610.34
2023-12-20T09:25:19.000Z,99451.69
2023-12-20T09:27:48.261Z,99508.34
2023-12-20T09:30:26.115Z,99595.22
2023-12-20T09:32:57.479Z,99603.63
2023-12-20T09:35:27.580Z,99595.88
2023-12-20T09:37:56.073Z,99468.94
2023-12-20T09:40:28.281Z,99379.59
2023-12-20T09:43:00.220Z,99575.75
2023-12-20T09:45:28.896Z,99570.69
2023-12-20T09:48:02.266Z,99560.78
2023-12-20T09:50:31.885Z,99526.03
2023-12-20T09:53:04.226Z,99556.03
2023-12-20T09:55:35.001Z,99553.22
2023-12-20T09:58:04.145Z,99450.28
2023-12-20T10:00:36.288Z,99047.97
2023-12-20T10:03:08.327Z,99536.66
2023-12-20T10:05:37.549Z,99299.19
2023-12-20T10:08:06.484Z,99531.03
2023-12-20T10:10:41.970Z,99412.28
2023-12-20T10:13:15.064Z,99482.78
2023-12-20T10:15:43.868Z,99293.16
2023-12-20T10:18:15.485Z,99505.91
2023-12-20T10:20:56.776Z,99052.06
2023-12-20T10:23:25.247Z,99497.31
2023-12-20T10:26:52.737Z,99302.28
2023-12-20T10:29:22.764Z,99449.41
2023-12-20T10:31:51.629Z,99082.31
2023-12-20T10:34:21.257Z,99413.03
2023-12-20T10:36:49.805Z,99415.28
2023-12-20T10:39:19.369Z,99480.47
2023-12-20T10:41:49.973Z,99476.69
2023-12-20T10:44:18.345Z,99466.88
2023-12-20T10:46:52.704Z,99455.72
2023-12-20T10:49:25.486Z,99416.03
2023-12-20T10:52:01.330Z,99439.88
2023-12-20T10:54:32.296Z,98966.56
2023-12-20T10:57:02.564Z,99268.22
2023-12-20T10:59:37.397Z,99341.28
2023-12-20T11:02:07.241Z,99230.78
2023-12-20T11:04:46.811Z,99231.78
2023-12-20T11:07:24.280Z,99284.88
2023-12-20T11:10:13.611Z,99374.63
2023-12-20T11:12:49.757Z,99408.00
2023-12-20T11:15:18.735Z,99404.22
2023-12-20T11:17:51.721Z,99405.44
2023-12-20T11:20:25.392Z,99316.25
2023-12-20T11:22:57.501Z,99395.81
2023-12-20T11:25:27.793Z,99392.75
2023-12-20T11:28:13.004Z,99388.66
2023-12-20T11:30:48.255Z,99339.47
2023-12-20T11:33:17.061Z,99376.38
2023-12-20T11:35:48.107Z,99369.63
2023-12-20T11:38:16.985Z,99351.78
2023-12-20T11:40:46.364Z,99245.78
2023-12-20T11:43:14.430Z,99369.09
2023-12-20T11:45:53.007Z,99357.72
2023-12-20T11:48:21.706Z,99231.47
2023-12-20T11:50:51.085Z,99345.63
2023-12-20T11:53:20.698Z,99345.38
2023-12-20T11:55:50.188Z,99343.03
2023-12-20T11:58:18.999Z,99335.91
2023-12-20T12:00:47.843Z,99328.81
2023-12-20T12:03:18.716Z,99100.72
2023-12-20T12:05:52.887Z,99249.88
2023-12-20T12:08:23.063Z,99316.25
2023-12-20T12:10:53.456Z,99218.59
2023-12-20T12:13:22.735Z,99088.94
2023-12-20T12:15:52.592Z,99200.97
2023-12-20T12:18:21.925Z,99091.81
2023-12-20T12:20:52.445Z,99029.03
2023-12-20T12:23:26.337Z,99267.63
2023-12-20T12:25:56.664Z,99201.31
2023-12-20T12:28:29.674Z,98966.28
2023-12-20T12:31:03.153Z,99178.06
2023-12-20T12:33:33.273Z,99064.59
2023-12-20T12:36:07.187Z,99111.66
2023-12-20T12:38:37.769Z,99119.94
2023-12-20T12:41:09.040Z,99261.41
2023-12-20T12:43:38.621Z,99223.34
2023-12-20T12:46:08.742Z,99270.25
2023-12-20T12:48:38.296Z,99128.34
2023-12-20T12:51:15.341Z,99246.94
2023-12-20T12:53:45.034Z,98854.84
2023-12-20T12:56:16.933Z,98996.72
2023-12-20T12:58:46.506Z,98990.94
2023-12-20T13:01:16.730Z,99014.47
2023-12-20T13:03:47.211Z,99192.78
2023-12-20T13:06:16.616Z,99264.34
2023-12-20T13:08:45.688Z,99246.09
2023-12-20T13:11:14.205Z,99171.94
2023-12-20T13:13:42.243Z,99175.97
2023-12-20T13:16:10.458Z,99221.69
2023-12-20T13:18:38.867Z,99212.69
2023-12-20T13:21:08.243Z,99025.34
2023-12-20T13:23:40.956Z,99252.25
2023-12-20T13:26:09.847Z,98958.63
2023-12-20T13:28:37.991Z,99245.38
2023-12-20T13:31:06.355Z,99220.72
2023-12-20T13:33:34.505Z,99193.00
2023-12-20T13:36:05.979Z,98945.03
2023-12-20T13:38:37.259Z,99211.72
2023-12-20T13:41:05.937Z,99095.63
2023-12-20T13:43:34.170Z,99169.69
2023-12-20T13:46:02.712Z,99200.31
2023-12-20T13:48:30.819Z,98999.25
2023-12-20T13:50:59.828Z,99130.88
2023-12-20T13:53:27.852Z,99017.47
2023-12-20T13:55:57.347Z,99115.84
2023-12-20T13:58:25.432Z,99220.69
2023-12-20T14:00:54.155Z,99124.91
2023-12-20T14:03:22.440Z,99224.97
2023-12-20T14:05:51.194Z,99227.78
2023-12-20T14:08:20.034Z,99188.97
2023-12-20T14:10:48.169Z,99212.31
2023-12-20T14:13:17.783Z,99057.47
2023-12-20T14:15:49.107Z,99174.00
2023-12-20T14:18:18.322Z,99221.41
2023-12-20T14:20:48.978Z,99177.25
2023-12-20T14:23:17.073Z,99214.28
2023-12-20T14:25:59.462Z,98892.53
2023-12-20T14:28:30.094Z,98987.72
2023-12-20T14:30:59.041Z,99060.66
2023-12-20T14:33:28.003Z,99023.28
2023-12-20T14:35:57.438Z,99201.63
2023-12-20T14:38:26.834Z,99207.94
2023-12-20T14:40:56.101Z,99208.25
2023-12-20T14:43:25.645Z,99230.91
2023-12-20T14:45:55.922Z,99213.44
2023-12-20T14:48:24.316Z,99210.38
2023-12-20T14:50:53.788Z,99086.25
2023-12-20T14:53:23.520Z,99212.41
2023-12-20T14:55:52.423Z,98975.19
2023-12-20T14:58:20.512Z,99129.84
2023-12-20T15:00:58.825Z,98898.66
2023-12-20T15:03:28.310Z,99218.19
2023-12-20T15:05:59.803Z,99121.66
2023-12-20T15:08:27.950Z,99019.03
2023-12-20T15:10:56.020Z,99217.28
2023-12-20T15:13:24.039Z,99219.13
2023-12-20T15:15:52.292Z,99209.09
2023-12-20T15:18:20.431Z,99211.97
2023-12-20T15:20:50.533Z,99211.16
2023-12-20T15:23:18.707Z,99186.00
2023-12-20T15:25:47.557Z,99169.78
2023-12-20T15:28:15.621Z,99184.41
2023-12-20T15:30:43.666Z,99184.19
2023-12-20T15:33:11.776Z,99199.22
2023-12-20T15:35:40.408Z,99120.25
2023-12-20T15:38:09.871Z,99175.97
2023-12-20T15:40:38.495Z,99134.16
2023-12-20T15:43:06.812Z,99116.09
2023-12-20T15:45:34.906Z,99012.53
2023-12-20T15:48:05.379Z,99138.59
2023-12-20T15:50:35.240Z,99141.28
2023-12-20T15:53:04.714Z,99118.03
2023-12-20T15:55:35.426Z,99156.84
2023-12-20T15:58:04.475Z,99207.69
2023-12-20T16:00:32.674Z,99204.06
2023-12-20T16:03:00.755Z,99181.44
2023-12-20T16:05:29.377Z,99162.25
2023-12-20T16:07:57.323Z,99145.03
2023-12-20T16:10:25.481Z,99200.25
2023-12-20T16:12:54.986Z,99213.72
2023-12-20T16:15:23.471Z,99210.50
2023-12-20T16:17:51.883Z,99221.22
2023-12-20T16:20:20.534Z,99194.72
2023-12-20T16:22:48.592Z,99227.66
2023-12-20T16:25:16.779Z,99220.09
2023-12-20T16:27:47.677Z,99188.22
2023-12-20T16:30:18.050Z,99118.06
2023-12-20T16:32:46.275Z,99211.16
2023-12-20T16:35:14.700Z,99146.06
2023-12-20T16:37:43.248Z,99174.44
2023-12-20T16:40:13.858Z,99209.44
2023-12-20T16:42:42.057Z,99209.09
2023-12-20T16:45:10.914Z,99162.56
2023-12-20T16:47:40.795Z,99206.50
2023-12-20T16:50:10.583Z,99203.38
2023-12-20T16:52:39.163Z,99205.91
2023-12-20T16:55:10.730Z,99210.38
2023-12-20T16:57:39.113Z,99205.19
2023-12-20T17:00:08.700Z,99196.75
2023-12-20T17:02:37.483Z,99189.47
2023-12-20T17:05:07.582Z,99149.72
2023-12-20T17:07:35.687Z,99183.88
2023-12-20T17:10:04.271Z,99188.88
2023-12-20T17:12:32.344Z,99191.13
2023-12-20T17:15:02.156Z,99176.41
2023-12-20T17:17:30.423Z,99200.06
2023-12-20T17:19:58.530Z,99193.94
2023-12-20T17:22:28.142Z,99202.28
2023-12-20T17:24:56.336Z,99203.50
2023-12-20T17:27:24.328Z,99207.75
2023-12-20T17:29:52.527Z,99200.28
2023-12-20T17:32:20.746Z,99134.53
2023-12-20T17:34:48.855Z,99129.66
2023-12-20T17:37:17.104Z,99110.53
2023-12-20T17:39:46.624Z,99197.03
2023-12-20T17:42:15.231Z,99123.38
2023-12-20T17:44:43.521Z,99123.00
2023-12-20T17:47:12.163Z,99197.09
2023-12-20T17:49:40.285Z,99199.59
2023-12-20T17:52:09.270Z,99205.78
2023-12-20T17:54:37.580Z,99156.13
2023-12-20T17:57:07.325Z,99195.97
2023-12-20T17:59:35.399Z,99182.28
2023-12-20T18:02:04.897Z,99186.78
2023-12-20T18:04:33.189Z,99208.59
2023-12-20T18:07:01.648Z,99206.69
2023-12-20T18:09:30.311Z,99132.31
2023-12-20T18:12:00.135Z,99148.47
2023-12-20T18:14:31.268Z,99206.00
2023-12-20T18:16:59.376Z,99199.38
2023-12-20T18:19:27.586Z,99194.03
2023-12-20T18:21:55.722Z,99197.75
2023-12-20T18:24:24.360Z,99172.78
2023-12-20T18:26:52.550Z,99190.94
2023-12-20T18:29:20.874Z,99103.25
2023-12-20T18:31:51.606Z,99145.84
2023-12-20T18:34:20.181Z,99065.00
2023-12-20T18:36:49.367Z,99143.81
2023-12-20T18:39:18.395Z,99176.16
2023-12-20T18:41:49.385Z,99160.00
2023-12-20T18:44:17.868Z,99174.56
2023-12-20T18:46:47.032Z,99177.34
2023-12-20T18:49:16.774Z,99178.31
2023-12-20T18:51:45.370Z,99155.84
2023-12-20T18:54:13.370Z,99159.94
2023-12-20T18:56:43.665Z,99142.75
2023-12-20T18:59:12.332Z,99174.91
2023-12-20T19:01:40.518Z,99153.84
2023-12-20T19:04:08.736Z,99143.28
2023-12-20T19:06:38.558Z,99181.47
2023-12-20T19:09:06.625Z,99096.16
2023-12-20T19:11:34.922Z,99171.75
2023-12-20T19:14:03.755Z,99164.72
2023-12-20T19:16:32.083Z,99165.13
2023-12-20T19:19:00.280Z,99164.19
2023-12-20T19:21:28.284Z,99164.53
2023-12-20T19:23:57.761Z,99163.97
2023-12-20T19:26:25.791Z,99126.81
2023-12-20T19:28:55.582Z,99105.75
2023-12-20T19:31:23.824Z,99161.69
2023-12-20T19:33:54.487Z,99167.31
2023-12-20T19:36:22.570Z,99120.41
2023-12-20T19:38:50.601Z,99173.38
2023-12-20T19:41:20.013Z,99170.09
2023-12-20T19:43:48.856Z,99125.41
2023-12-20T19:46:17.056Z,99176.16
2023-12-20T19:48:46.605Z,99143.31
2023-12-20T19:51:16.115Z,99170.41
2023-12-20T19:53:44.575Z,99115.66
2023-12-20T19:56:12.646Z,99124.00
2023-12-20T19:58:41.951Z,99171.69
2023-12-20T20:01:10.123Z,99114.19
2023-12-20T20:03:38.387Z,99068.78
2023-12-20T20:06:07.484Z,99170.53
2023-12-20T20:08:35.624Z,99161.25
2023-12-20T20:11:03.913Z,99136.03
2023-12-20T20:13:32.305Z,99156.81
2023-12-20T20:16:02.226Z,99123.47
2023-12-20T20:18:30.386Z,99162.38
2023-12-20T20:20:58.744Z,99157.78
2023-12-20T20:23:27.611Z,99141.88
2023-12-20T20:25:57.518Z,99160.63
2023-12-20T20:28:29.555Z,99104.66
2023-12-20T20:30:58.652Z,99083.72
2023-12-20T20:33:29.165Z,99140.56
2023-12-20T20:35:59.967Z,99079.34
2023-12-20T20:38:29.678Z,99016.91
2023-12-20T20:40:59.581Z,99088.47
2023-12-20T20:43:27.835Z,99090.91
2023-12-20T20:45:56.099Z,99067.25
2023-12-20T20:48:28.226Z,99146.09
2023-12-20T20:51:03.513Z,99155.75
2023-12-20T20:53:31.996Z,99138.41
2023-12-20T20:56:00.403Z,99148.56
2023-12-20T20:58:28.695Z,99148.75
2023-12-20T21:00:57.798Z,99142.66
2023-12-20T21:03:28.302Z,99133.81
2023-12-20T21:05:56.723Z,99097.06
2023-12-20T21:08:26.147Z,99036.72
2023-12-20T21:10:59.435Z,99133.66
2023-12-20T21:13:28.105Z,99130.00
2023-12-20T21:15:56.419Z,99049.00
2023-12-20T21:18:24.558Z,99128.25
2023-12-20T21:20:52.502Z,99119.66
2023-12-20T21:23:20.520Z,99105.22
2023-12-20T21:25:49.950Z,99103.72
2023-12-20T21:28:18.093Z,99119.09
2023-12-20T21:30:46.218Z,99122.75
2023-12-20T21:33:14.596Z,99121.81
2023-12-20T21:35:42.572Z,99121.44
2023-12-20T21:38:11.746Z,99059.69
2023-12-20T21:40:39.783Z,99129.63
2023-12-20T21:43:09.340Z,99125.72
2023-12-20T21:45:37.796Z,99074.09
2023-12-20T21:48:06.549Z,99086.84
2023-12-20T21:50:34.657Z,99107.88
2023-12-20T21:53:02.738Z,99135.13
2023-12-20T21:55:30.818Z,99138.03
2023-12-20T21:57:58.860Z,99102.66
2023-12-20T22:00:28.277Z,99141.72
2023-12-20T22:02:59.072Z,99134.78
2023-12-20T22:05:27.448Z,99133.47
2023-12-20T22:07:55.497Z,99073.69
2023-12-20T22:10:23.514Z,99140.97
2023-12-20T22:12:51.816Z,99132.13
2023-12-20T22:15:20.216Z,99115.56
2023-12-20T22:17:50.039Z,99122.97
2023-12-20T22:20:18.936Z,99112.31
2023-12-20T22:22:47.442Z,99057.59
2023-12-20T22:25:15.686Z,99106.38
2023-12-20T22:27:44.239Z,99114.44
2023-12-20T22:30:13.282Z,99095.47
2023-12-20T22:32:41.547Z,99107.16
2023-12-20T22:35:13.373Z,99107.22
2023-12-20T22:37:43.123Z,99096.81
2023-12-20T22:40:12.401Z,99061.50
2023-12-20T22:42:41.166Z,99000.66
2023-12-20T22:45:10.315Z,99067.59
2023-12-20T22:47:38.414Z,98956.53
2023-12-20T22:50:07.462Z,99078.16
2023-12-20T22:52:37.167Z,99086.34
2023-12-20T22:55:05.870Z,99086.66
2023-12-20T22:57:33.983Z,99080.72
2023-12-20T23:00:03.055Z,99075.69
2023-12-20T23:02:31.598Z,99045.84
2023-12-20T23:04:59.819Z,99042.69
2023-12-20T23:07:28.121Z,99061.34
2023-12-20T23:09:59.087Z,99002.00
2023-12-20T23:12:27.327Z,99035.28
2023-12-20T23:14:55.384Z,99033.22
2023-12-20T23:17:23.662Z,99000.44
2023-12-20T23:19:51.943Z,99058.22
2023-12-20T23:22:20.015Z,99035.06
2023-12-20T23:24:48.237Z,99059.44
2023-12-20T23:27:17.670Z,99059.22
2023-12-20T23:29:45.726Z,99022.41
2023-12-20T23:32:13.904Z,99051.16
2023-12-20T23:34:42.114Z,99010.22
2023-12-20T23:37:12.625Z,99049.75
2023-12-20T23:39:40.693Z,99058.50
2023-12-20T23:42:09.894Z,98997.97
2023-12-20T23:44:39.238Z,99056.00
2023-12-20T23:47:07.508Z,99023.38
2023-12-20T23:49:35.655Z,99050.84
2023-12-20T23:52:04.167Z,99053.22
2023-12-20T23:54:32.239Z,99052.63
2023-12-20T23:57:00.279Z,99055.38
2023-12-20T23:59:28.249Z,99047.88
